sensor_id;sensor_type;location;lat;lon;timestamp;P1;durP1;ratioP1;P2;durP2;ratioP2
74632;SDS011;63139;52.018;8.552;2023-03-29T00:00:28;3.75;;;2.63;;
74632;SDS011;63139;52.018;8.552;2023-03-29T00:02:56;6.50;;;3.00;;
74632;SDS011;63139;52.018;8.552;2023-03-29T00:05:24;3.17;;;2.35;;
74632;SDS011;63139;52.018;8.552;2023-03-29T00:07:52;6.03;;;2.20;;
74632;SDS011;63139;52.018;8.552;2023-03-29T00:10:27;3.53;;;2.70;;
74632;SDS011;63139;52.018;8.552;2023-03-29T00:12:57;5.65;;;2.90;;
74632;SDS011;63139;52.018;8.552;2023-03-29T00:15:25;4.93;;;2.35;;
74632;SDS011;63139;52.018;8.552;2023-03-29T00:17:53;4.18;;;2.63;;
74632;SDS011;63139;52.018;8.552;2023-03-29T00:20:21;5.03;;;2.53;;
74632;SDS011;63139;52.018;8.552;2023-03-29T00:22:48;4.20;;;2.60;;
74632;SDS011;63139;52.018;8.552;2023-03-29T00:25:16;3.85;;;2.50;;
74632;SDS011;63139;52.018;8.552;2023-03-29T00:27:45;3.80;;;2.45;;
74632;SDS011;63139;52.018;8.552;2023-03-29T00:30:13;7.63;;;2.97;;
74632;SDS011;63139;52.018;8.552;2023-03-29T00:32:42;8.93;;;2.80;;
74632;SDS011;63139;52.018;8.552;2023-03-29T00:35:10;2.83;;;2.25;;
74632;SDS011;63139;52.018;8.552;2023-03-29T00:37:38;3.50;;;2.22;;
74632;SDS011;63139;52.018;8.552;2023-03-29T00:40:07;3.25;;;2.17;;
74632;SDS011;63139;52.018;8.552;2023-03-29T00:42:38;4.90;;;2.53;;
74632;SDS011;63139;52.018;8.552;2023-03-29T00:45:12;3.70;;;2.72;;
74632;SDS011;63139;52.018;8.552;2023-03-29T00:47:44;3.55;;;2.47;;
74632;SDS011;63139;52.018;8.552;2023-03-29T00:50:16;3.80;;;2.50;;
74632;SDS011;63139;52.018;8.552;2023-03-29T00:52:50;3.63;;;2.53;;
74632;SDS011;63139;52.018;8.552;2023-03-29T00:55:21;4.15;;;2.90;;
74632;SDS011;63139;52.018;8.552;2023-03-29T00:57:51;8.02;;;3.33;;
74632;SDS011;63139;52.018;8.552;2023-03-29T01:00:24;3.38;;;2.85;;
74632;SDS011;63139;52.018;8.552;2023-03-29T01:02:57;3.83;;;2.70;;
74632;SDS011;63139;52.018;8.552;2023-03-29T01:05:29;4.15;;;3.05;;
74632;SDS011;63139;52.018;8.552;2023-03-29T01:08:00;5.18;;;3.10;;
74632;SDS011;63139;52.018;8.552;2023-03-29T01:10:33;4.43;;;2.42;;
74632;SDS011;63139;52.018;8.552;2023-03-29T01:13:07;5.30;;;3.25;;
74632;SDS011;63139;52.018;8.552;2023-03-29T01:15:39;3.70;;;2.80;;
74632;SDS011;63139;52.018;8.552;2023-03-29T01:18:10;4.40;;;3.00;;
74632;SDS011;63139;52.018;8.552;2023-03-29T01:20:42;5.07;;;3.00;;
74632;SDS011;63139;52.018;8.552;2023-03-29T01:23:27;3.38;;;2.90;;
74632;SDS011;63139;52.018;8.552;2023-03-29T01:26:08;4.22;;;3.25;;
74632;SDS011;63139;52.018;8.552;2023-03-29T01:28:46;3.88;;;2.92;;
74632;SDS011;63139;52.018;8.552;2023-03-29T01:31:19;4.10;;;2.90;;
74632;SDS011;63139;52.018;8.552;2023-03-29T01:33:52;5.03;;;3.20;;
74632;SDS011;63139;52.018;8.552;2023-03-29T01:36:26;4.40;;;3.22;;
74632;SDS011;63139;52.018;8.552;2023-03-29T01:39:01;4.55;;;3.30;;
74632;SDS011;63139;52.018;8.552;2023-03-29T01:41:34;3.90;;;3.20;;
74632;SDS011;63139;52.018;8.552;2023-03-29T01:44:12;4.63;;;3.35;;
74632;SDS011;63139;52.018;8.552;2023-03-29T01:46:45;4.93;;;3.08;;
74632;SDS011;63139;52.018;8.552;2023-03-29T01:49:15;3.75;;;2.92;;
74632;SDS011;63139;52.018;8.552;2023-03-29T01:51:51;4.53;;;3.15;;
74632;SDS011;63139;52.018;8.552;2023-03-29T01:54:22;5.82;;;3.10;;
74632;SDS011;63139;52.018;8.552;2023-03-29T01:56:55;4.40;;;3.22;;
74632;SDS011;63139;52.018;8.552;2023-03-29T01:59:27;4.85;;;2.75;;
74632;SDS011;63139;52.018;8.552;2023-03-29T02:01:57;4.13;;;3.28;;
74632;SDS011;63139;52.018;8.552;2023-03-29T02:04:29;4.22;;;2.97;;
74632;SDS011;63139;52.018;8.552;2023-03-29T02:07:00;4.88;;;3.13;;
74632;SDS011;63139;52.018;8.552;2023-03-29T02:09:31;4.38;;;3.72;;
74632;SDS011;63139;52.018;8.552;2023-03-29T02:12:02;4.30;;;3.15;;
74632;SDS011;63139;52.018;8.552;2023-03-29T02:14:34;5.95;;;3.65;;
74632;SDS011;63139;52.018;8.552;2023-03-29T02:17:12;4.93;;;3.33;;
74632;SDS011;63139;52.018;8.552;2023-03-29T02:19:43;5.70;;;3.72;;
74632;SDS011;63139;52.018;8.552;2023-03-29T02:22:17;4.80;;;3.70;;
74632;SDS011;63139;52.018;8.552;2023-03-29T02:24:52;3.95;;;3.35;;
74632;SDS011;63139;52.018;8.552;2023-03-29T02:27:24;4.55;;;2.80;;
74632;SDS011;63139;52.018;8.552;2023-03-29T02:29:55;7.60;;;4.05;;
74632;SDS011;63139;52.018;8.552;2023-03-29T02:32:24;4.97;;;3.22;;
74632;SDS011;63139;52.018;8.552;2023-03-29T02:34:57;4.65;;;3.47;;
74632;SDS011;63139;52.018;8.552;2023-03-29T02:37:30;6.82;;;3.58;;
74632;SDS011;63139;52.018;8.552;2023-03-29T02:40:01;5.10;;;2.97;;
74632;SDS011;63139;52.018;8.552;2023-03-29T02:45:08;5.15;;;3.15;;
74632;SDS011;63139;52.018;8.552;2023-03-29T02:47:40;6.07;;;2.40;;
74632;SDS011;63139;52.018;8.552;2023-03-29T02:50:11;4.07;;;2.90;;
74632;SDS011;63139;52.018;8.552;2023-03-29T02:52:40;4.50;;;2.90;;
74632;SDS011;63139;52.018;8.552;2023-03-29T02:55:13;3.75;;;2.78;;
74632;SDS011;63139;52.018;8.552;2023-03-29T02:57:44;5.78;;;3.13;;
74632;SDS011;63139;52.018;8.552;2023-03-29T03:00:13;3.60;;;2.78;;
74632;SDS011;63139;52.018;8.552;2023-03-29T03:02:45;4.28;;;3.05;;
74632;SDS011;63139;52.018;8.552;2023-03-29T03:05:16;3.75;;;2.80;;
74632;SDS011;63139;52.018;8.552;2023-03-29T03:07:44;4.03;;;2.88;;
74632;SDS011;63139;52.018;8.552;2023-03-29T03:10:12;4.57;;;3.10;;
74632;SDS011;63139;52.018;8.552;2023-03-29T03:12:41;5.65;;;3.03;;
74632;SDS011;63139;52.018;8.552;2023-03-29T03:15:09;4.22;;;2.47;;
74632;SDS011;63139;52.018;8.552;2023-03-29T03:17:39;4.57;;;2.70;;
74632;SDS011;63139;52.018;8.552;2023-03-29T03:20:08;3.88;;;2.65;;
74632;SDS011;63139;52.018;8.552;2023-03-29T03:22:40;3.58;;;2.70;;
74632;SDS011;63139;52.018;8.552;2023-03-29T03:25:10;4.15;;;2.50;;
74632;SDS011;63139;52.018;8.552;2023-03-29T03:27:38;3.28;;;2.60;;
74632;SDS011;63139;52.018;8.552;2023-03-29T03:30:07;3.85;;;2.72;;
74632;SDS011;63139;52.018;8.552;2023-03-29T03:32:49;4.03;;;2.92;;
74632;SDS011;63139;52.018;8.552;2023-03-29T03:35:40;5.10;;;3.10;;
74632;SDS011;63139;52.018;8.552;2023-03-29T03:38:08;4.15;;;2.80;;
74632;SDS011;63139;52.018;8.552;2023-03-29T03:40:36;6.13;;;2.72;;
74632;SDS011;63139;52.018;8.552;2023-03-29T03:43:03;3.65;;;2.60;;
74632;SDS011;63139;52.018;8.552;2023-03-29T03:45:32;4.90;;;2.83;;
74632;SDS011;63139;52.018;8.552;2023-03-29T03:48:09;4.95;;;2.42;;
74632;SDS011;63139;52.018;8.552;2023-03-29T03:50:47;4.72;;;2.58;;
74632;SDS011;63139;52.018;8.552;2023-03-29T03:53:16;3.72;;;2.22;;
74632;SDS011;63139;52.018;8.552;2023-03-29T03:56:04;4.85;;;3.40;;
74632;SDS011;63139;52.018;8.552;2023-03-29T03:58:43;4.72;;;3.13;;
74632;SDS011;63139;52.018;8.552;2023-03-29T04:01:13;5.75;;;3.35;;
74632;SDS011;63139;52.018;8.552;2023-03-29T04:03:52;4.35;;;2.65;;
74632;SDS011;63139;52.018;8.552;2023-03-29T04:06:21;3.67;;;2.20;;
74632;SDS011;63139;52.018;8.552;2023-03-29T04:09:19;3.33;;;2.60;;
74632;SDS011;63139;52.018;8.552;2023-03-29T04:11:58;4.63;;;2.75;;
74632;SDS011;63139;52.018;8.552;2023-03-29T04:14:27;5.43;;;2.80;;
74632;SDS011;63139;52.018;8.552;2023-03-29T04:17:03;3.20;;;2.30;;
74632;SDS011;63139;52.018;8.552;2023-03-29T04:19:53;3.53;;;2.88;;
74632;SDS011;63139;52.018;8.552;2023-03-29T04:22:21;3.58;;;2.90;;
74632;SDS011;63139;52.018;8.552;2023-03-29T04:24:50;4.95;;;3.00;;
74632;SDS011;63139;52.018;8.552;2023-03-29T04:27:36;2.83;;;2.53;;
74632;SDS011;63139;52.018;8.552;2023-03-29T04:30:16;4.80;;;2.75;;
74632;SDS011;63139;52.018;8.552;2023-03-29T04:33:06;4.72;;;3.00;;
74632;SDS011;63139;52.018;8.552;2023-03-29T04:35:38;4.85;;;2.60;;
74632;SDS011;63139;52.018;8.552;2023-03-29T04:38:10;5.53;;;2.78;;
74632;SDS011;63139;52.018;8.552;2023-03-29T04:40:39;5.90;;;3.00;;
74632;SDS011;63139;52.018;8.552;2023-03-29T04:43:11;5.72;;;2.90;;
74632;SDS011;63139;52.018;8.552;2023-03-29T04:48:32;4.07;;;2.80;;
74632;SDS011;63139;52.018;8.552;2023-03-29T04:51:04;4.50;;;3.10;;
74632;SDS011;63139;52.018;8.552;2023-03-29T04:53:32;6.20;;;4.13;;
74632;SDS011;63139;52.018;8.552;2023-03-29T04:56:00;3.83;;;3.00;;
74632;SDS011;63139;52.018;8.552;2023-03-29T04:58:51;5.07;;;3.28;;
74632;SDS011;63139;52.018;8.552;2023-03-29T05:01:19;3.88;;;3.05;;
74632;SDS011;63139;52.018;8.552;2023-03-29T05:03:55;5.53;;;3.15;;
74632;SDS011;63139;52.018;8.552;2023-03-29T05:06:30;7.10;;;2.90;;
74632;SDS011;63139;52.018;8.552;2023-03-29T05:08:58;3.22;;;2.47;;
74632;SDS011;63139;52.018;8.552;2023-03-29T05:11:31;4.35;;;3.22;;
74632;SDS011;63139;52.018;8.552;2023-03-29T05:13:59;5.93;;;3.83;;
74632;SDS011;63139;52.018;8.552;2023-03-29T05:16:32;4.40;;;3.28;;
74632;SDS011;63139;52.018;8.552;2023-03-29T05:19:01;4.57;;;2.95;;
74632;SDS011;63139;52.018;8.552;2023-03-29T05:21:32;3.65;;;3.10;;
74632;SDS011;63139;52.018;8.552;2023-03-29T05:24:04;3.72;;;2.92;;
74632;SDS011;63139;52.018;8.552;2023-03-29T05:26:56;3.72;;;3.00;;
74632;SDS011;63139;52.018;8.552;2023-03-29T05:29:26;3.80;;;3.15;;
74632;SDS011;63139;52.018;8.552;2023-03-29T05:32:05;3.78;;;2.92;;
74632;SDS011;63139;52.018;8.552;2023-03-29T05:34:33;4.05;;;2.65;;
74632;SDS011;63139;52.018;8.552;2023-03-29T05:37:03;7.13;;;3.80;;
74632;SDS011;63139;52.018;8.552;2023-03-29T05:39:41;3.30;;;2.80;;
74632;SDS011;63139;52.018;8.552;2023-03-29T05:42:09;5.82;;;2.80;;
74632;SDS011;63139;52.018;8.552;2023-03-29T05:45:07;3.67;;;2.65;;
74632;SDS011;63139;52.018;8.552;2023-03-29T05:47:36;3.38;;;2.58;;
74632;SDS011;63139;52.018;8.552;2023-03-29T05:50:04;4.18;;;3.17;;
74632;SDS011;63139;52.018;8.552;2023-03-29T05:52:37;3.45;;;2.40;;
74632;SDS011;63139;52.018;8.552;2023-03-29T05:55:06;5.15;;;2.95;;
74632;SDS011;63139;52.018;8.552;2023-03-29T05:57:35;3.90;;;2.90;;
74632;SDS011;63139;52.018;8.552;2023-03-29T06:00:04;4.35;;;3.00;;
74632;SDS011;63139;52.018;8.552;2023-03-29T06:02:43;3.03;;;2.60;;
74632;SDS011;63139;52.018;8.552;2023-03-29T06:05:11;5.03;;;3.00;;
74632;SDS011;63139;52.018;8.552;2023-03-29T06:07:54;4.63;;;3.15;;
74632;SDS011;63139;52.018;8.552;2023-03-29T06:10:42;4.70;;;3.28;;
74632;SDS011;63139;52.018;8.552;2023-03-29T06:13:34;4.35;;;2.90;;
74632;SDS011;63139;52.018;8.552;2023-03-29T06:16:02;5.60;;;3.22;;
74632;SDS011;63139;52.018;8.552;2023-03-29T06:18:31;4.10;;;2.90;;
74632;SDS011;63139;52.018;8.552;2023-03-29T06:20:58;3.42;;;2.63;;
74632;SDS011;63139;52.018;8.552;2023-03-29T06:23:30;4.47;;;2.92;;
74632;SDS011;63139;52.018;8.552;2023-03-29T06:25:58;5.13;;;2.88;;
74632;SDS011;63139;52.018;8.552;2023-03-29T06:28:27;6.18;;;3.22;;
74632;SDS011;63139;52.018;8.552;2023-03-29T06:30:55;4.68;;;3.17;;
74632;SDS011;63139;52.018;8.552;2023-03-29T06:33:31;3.38;;;2.63;;
74632;SDS011;63139;52.018;8.552;2023-03-29T06:36:11;6.25;;;3.20;;
74632;SDS011;63139;52.018;8.552;2023-03-29T06:38:43;4.20;;;3.00;;
74632;SDS011;63139;52.018;8.552;2023-03-29T06:41:22;4.05;;;2.65;;
74632;SDS011;63139;52.018;8.552;2023-03-29T06:44:04;4.50;;;2.90;;
74632;SDS011;63139;52.018;8.552;2023-03-29T06:46:37;4.28;;;2.65;;
74632;SDS011;63139;52.018;8.552;2023-03-29T06:49:06;6.18;;;3.47;;
74632;SDS011;63139;52.018;8.552;2023-03-29T06:52:06;4.85;;;2.65;;
74632;SDS011;63139;52.018;8.552;2023-03-29T06:54:35;4.65;;;2.80;;
74632;SDS011;63139;52.018;8.552;2023-03-29T06:57:04;5.90;;;3.70;;
74632;SDS011;63139;52.018;8.552;2023-03-29T06:59:33;5.18;;;3.40;;
74632;SDS011;63139;52.018;8.552;2023-03-29T07:02:22;5.20;;;3.22;;
74632;SDS011;63139;52.018;8.552;2023-03-29T07:04:56;6.35;;;3.50;;
74632;SDS011;63139;52.018;8.552;2023-03-29T07:07:29;6.50;;;3.28;;
74632;SDS011;63139;52.018;8.552;2023-03-29T07:10:25;6.18;;;3.08;;
74632;SDS011;63139;52.018;8.552;2023-03-29T07:13:29;4.90;;;2.90;;
74632;SDS011;63139;52.018;8.552;2023-03-29T07:16:01;6.63;;;3.65;;
74632;SDS011;63139;52.018;8.552;2023-03-29T07:18:37;5.55;;;2.97;;
74632;SDS011;63139;52.018;8.552;2023-03-29T07:21:05;6.72;;;3.63;;
74632;SDS011;63139;52.018;8.552;2023-03-29T07:23:34;5.47;;;3.63;;
74632;SDS011;63139;52.018;8.552;2023-03-29T07:26:04;5.10;;;3.25;;
74632;SDS011;63139;52.018;8.552;2023-03-29T07:28:34;5.97;;;3.47;;
74632;SDS011;63139;52.018;8.552;2023-03-29T07:31:03;8.68;;;3.50;;
74632;SDS011;63139;52.018;8.552;2023-03-29T07:33:38;5.28;;;3.13;;
74632;SDS011;63139;52.018;8.552;2023-03-29T07:36:07;5.53;;;3.38;;
74632;SDS011;63139;52.018;8.552;2023-03-29T07:38:35;3.95;;;2.80;;
74632;SDS011;63139;52.018;8.552;2023-03-29T07:41:13;5.35;;;3.00;;
74632;SDS011;63139;52.018;8.552;2023-03-29T07:44:04;4.20;;;2.97;;
74632;SDS011;63139;52.018;8.552;2023-03-29T07:46:34;8.07;;;3.00;;
74632;SDS011;63139;52.018;8.552;2023-03-29T07:49:02;5.07;;;2.83;;
74632;SDS011;63139;52.018;8.552;2023-03-29T07:51:31;6.65;;;3.00;;
74632;SDS011;63139;52.018;8.552;2023-03-29T07:54:04;5.97;;;3.22;;
74632;SDS011;63139;52.018;8.552;2023-03-29T07:56:47;4.63;;;2.97;;
74632;SDS011;63139;52.018;8.552;2023-03-29T07:59:37;5.88;;;2.70;;
74632;SDS011;63139;52.018;8.552;2023-03-29T08:02:19;4.65;;;2.88;;
74632;SDS011;63139;52.018;8.552;2023-03-29T08:04:51;5.75;;;2.90;;
74632;SDS011;63139;52.018;8.552;2023-03-29T08:07:39;5.28;;;2.95;;
74632;SDS011;63139;52.018;8.552;2023-03-29T08:10:15;4.18;;;2.92;;
74632;SDS011;63139;52.018;8.552;2023-03-29T08:13:06;5.25;;;2.65;;
74632;SDS011;63139;52.018;8.552;2023-03-29T08:15:45;6.38;;;3.20;;
74632;SDS011;63139;52.018;8.552;2023-03-29T08:18:36;10.65;;;3.72;;
74632;SDS011;63139;52.018;8.552;2023-03-29T08:21:03;4.25;;;3.33;;
74632;SDS011;63139;52.018;8.552;2023-03-29T08:23:31;6.13;;;3.85;;
74632;SDS011;63139;52.018;8.552;2023-03-29T08:26:08;7.00;;;3.53;;
74632;SDS011;63139;52.018;8.552;2023-03-29T08:28:39;13.63;;;3.63;;
74632;SDS011;63139;52.018;8.552;2023-03-29T08:31:07;6.22;;;3.67;;
74632;SDS011;63139;52.018;8.552;2023-03-29T08:33:38;4.70;;;3.03;;
74632;SDS011;63139;52.018;8.552;2023-03-29T08:36:37;6.10;;;3.00;;
74632;SDS011;63139;52.018;8.552;2023-03-29T08:39:15;5.57;;;3.20;;
74632;SDS011;63139;52.018;8.552;2023-03-29T08:41:55;6.35;;;2.92;;
74632;SDS011;63139;52.018;8.552;2023-03-29T08:44:37;5.43;;;2.80;;
74632;SDS011;63139;52.018;8.552;2023-03-29T08:47:17;8.55;;;4.00;;
74632;SDS011;63139;52.018;8.552;2023-03-29T08:49:52;5.50;;;2.90;;
74632;SDS011;63139;52.018;8.552;2023-03-29T08:52:33;5.13;;;3.08;;
74632;SDS011;63139;52.018;8.552;2023-03-29T08:55:21;4.13;;;2.80;;
74632;SDS011;63139;52.018;8.552;2023-03-29T08:58:14;4.93;;;3.22;;
74632;SDS011;63139;52.018;8.552;2023-03-29T09:00:47;7.47;;;3.40;;
74632;SDS011;63139;52.018;8.552;2023-03-29T09:03:18;4.70;;;3.22;;
74632;SDS011;63139;52.018;8.552;2023-03-29T09:05:52;7.65;;;3.00;;
74632;SDS011;63139;52.018;8.552;2023-03-29T09:08:25;7.05;;;2.97;;
74632;SDS011;63139;52.018;8.552;2023-03-29T09:10:58;5.88;;;3.15;;
74632;SDS011;63139;52.018;8.552;2023-03-29T09:13:39;5.72;;;4.63;;
74632;SDS011;63139;52.018;8.552;2023-03-29T09:18:51;9.27;;;3.63;;
74632;SDS011;63139;52.018;8.552;2023-03-29T09:21:29;7.07;;;3.60;;
74632;SDS011;63139;52.018;8.552;2023-03-29T09:24:05;5.05;;;3.50;;
74632;SDS011;63139;52.018;8.552;2023-03-29T09:27:07;9.55;;;3.58;;
74632;SDS011;63139;52.018;8.552;2023-03-29T09:29:46;5.22;;;3.58;;
74632;SDS011;63139;52.018;8.552;2023-03-29T09:32:38;6.05;;;3.20;;
74632;SDS011;63139;52.018;8.552;2023-03-29T09:35:15;4.85;;;3.10;;
74632;SDS011;63139;52.018;8.552;2023-03-29T09:37:49;5.80;;;3.60;;
74632;SDS011;63139;52.018;8.552;2023-03-29T09:40:19;6.93;;;3.58;;
74632;SDS011;63139;52.018;8.552;2023-03-29T09:43:00;5.20;;;3.40;;
74632;SDS011;63139;52.018;8.552;2023-03-29T09:45:30;6.05;;;3.35;;
74632;SDS011;63139;52.018;8.552;2023-03-29T09:48:02;6.82;;;3.28;;
74632;SDS011;63139;52.018;8.552;2023-03-29T09:50:39;5.13;;;3.60;;
74632;SDS011;63139;52.018;8.552;2023-03-29T09:53:09;6.63;;;3.25;;
74632;SDS011;63139;52.018;8.552;2023-03-29T09:55:42;5.40;;;3.45;;
74632;SDS011;63139;52.018;8.552;2023-03-29T09:58:29;5.18;;;4.00;;
74632;SDS011;63139;52.018;8.552;2023-03-29T10:00:58;4.50;;;3.30;;
74632;SDS011;63139;52.018;8.552;2023-03-29T10:03:30;5.50;;;3.53;;
74632;SDS011;63139;52.018;8.552;2023-03-29T10:06:11;5.13;;;3.25;;
74632;SDS011;63139;52.018;8.552;2023-03-29T10:08:49;5.05;;;3.30;;
74632;SDS011;63139;52.018;8.552;2023-03-29T10:11:27;5.78;;;3.30;;
74632;SDS011;63139;52.018;8.552;2023-03-29T10:13:59;7.38;;;3.42;;
74632;SDS011;63139;52.018;8.552;2023-03-29T10:16:32;6.07;;;3.60;;
74632;SDS011;63139;52.018;8.552;2023-03-29T10:19:14;5.78;;;3.90;;
74632;SDS011;63139;52.018;8.552;2023-03-29T10:21:46;5.30;;;3.80;;
74632;SDS011;63139;52.018;8.552;2023-03-29T10:24:17;3.75;;;3.25;;
74632;SDS011;63139;52.018;8.552;2023-03-29T10:26:46;7.05;;;3.90;;
74632;SDS011;63139;52.018;8.552;2023-03-29T10:29:17;7.30;;;4.03;;
74632;SDS011;63139;52.018;8.552;2023-03-29T10:31:44;5.50;;;3.70;;
74632;SDS011;63139;52.018;8.552;2023-03-29T10:34:14;9.07;;;3.90;;
74632;SDS011;63139;52.018;8.552;2023-03-29T10:36:44;6.80;;;3.50;;
74632;SDS011;63139;52.018;8.552;2023-03-29T10:39:17;5.45;;;3.40;;
74632;SDS011;63139;52.018;8.552;2023-03-29T10:41:48;7.40;;;4.15;;
74632;SDS011;63139;52.018;8.552;2023-03-29T10:44:25;6.50;;;3.72;;
74632;SDS011;63139;52.018;8.552;2023-03-29T10:47:06;6.97;;;3.70;;
74632;SDS011;63139;52.018;8.552;2023-03-29T10:49:41;7.30;;;3.58;;
74632;SDS011;63139;52.018;8.552;2023-03-29T10:52:13;5.30;;;3.63;;
74632;SDS011;63139;52.018;8.552;2023-03-29T10:54:42;8.57;;;3.70;;
74632;SDS011;63139;52.018;8.552;2023-03-29T10:57:11;7.97;;;3.97;;
74632;SDS011;63139;52.018;8.552;2023-03-29T10:59:44;7.63;;;4.50;;
74632;SDS011;63139;52.018;8.552;2023-03-29T11:02:38;7.40;;;4.40;;
74632;SDS011;63139;52.018;8.552;2023-03-29T11:05:29;9.13;;;4.13;;
74632;SDS011;63139;52.018;8.552;2023-03-29T11:08:05;9.60;;;4.82;;
74632;SDS011;63139;52.018;8.552;2023-03-29T11:10:57;9.15;;;4.82;;
74632;SDS011;63139;52.018;8.552;2023-03-29T11:13:35;7.30;;;4.50;;
74632;SDS011;63139;52.018;8.552;2023-03-29T11:16:14;9.95;;;4.97;;
74632;SDS011;63139;52.018;8.552;2023-03-29T11:19:10;7.25;;;4.60;;
74632;SDS011;63139;52.018;8.552;2023-03-29T11:21:54;9.50;;;5.03;;
74632;SDS011;63139;52.018;8.552;2023-03-29T11:24:35;7.25;;;5.18;;
74632;SDS011;63139;52.018;8.552;2023-03-29T11:27:16;7.25;;;4.47;;
74632;SDS011;63139;52.018;8.552;2023-03-29T11:29:55;7.05;;;5.50;;
74632;SDS011;63139;52.018;8.552;2023-03-29T11:32:34;8.30;;;5.30;;
74632;SDS011;63139;52.018;8.552;2023-03-29T11:35:18;7.53;;;5.13;;
74632;SDS011;63139;52.018;8.552;2023-03-29T11:38:00;12.95;;;5.70;;
74632;SDS011;63139;52.018;8.552;2023-03-29T11:40:38;7.45;;;4.88;;
74632;SDS011;63139;52.018;8.552;2023-03-29T11:43:14;8.95;;;5.38;;
74632;SDS011;63139;52.018;8.552;2023-03-29T11:45:48;12.82;;;4.97;;
74632;SDS011;63139;52.018;8.552;2023-03-29T11:48:21;8.80;;;5.50;;
74632;SDS011;63139;52.018;8.552;2023-03-29T11:50:53;11.80;;;5.30;;
74632;SDS011;63139;52.018;8.552;2023-03-29T11:53:27;10.98;;;6.05;;
74632;SDS011;63139;52.018;8.552;2023-03-29T11:56:07;10.43;;;5.72;;
74632;SDS011;63139;52.018;8.552;2023-03-29T11:58:39;10.18;;;6.20;;
74632;SDS011;63139;52.018;8.552;2023-03-29T12:01:11;7.97;;;5.53;;
74632;SDS011;63139;52.018;8.552;2023-03-29T12:03:45;9.80;;;5.45;;
74632;SDS011;63139;52.018;8.552;2023-03-29T12:06:18;8.90;;;6.18;;
74632;SDS011;63139;52.018;8.552;2023-03-29T12:08:51;9.65;;;6.25;;
74632;SDS011;63139;52.018;8.552;2023-03-29T12:11:24;7.40;;;4.97;;
74632;SDS011;63139;52.018;8.552;2023-03-29T12:13:57;10.82;;;5.65;;
74632;SDS011;63139;52.018;8.552;2023-03-29T12:16:30;9.70;;;6.07;;
74632;SDS011;63139;52.018;8.552;2023-03-29T12:19:03;7.78;;;5.32;;
74632;SDS011;63139;52.018;8.552;2023-03-29T12:21:36;9.02;;;5.57;;
74632;SDS011;63139;52.018;8.552;2023-03-29T12:24:11;7.13;;;5.07;;
74632;SDS011;63139;52.018;8.552;2023-03-29T12:26:45;10.70;;;5.70;;
74632;SDS011;63139;52.018;8.552;2023-03-29T12:29:29;8.32;;;5.00;;
74632;SDS011;63139;52.018;8.552;2023-03-29T12:32:20;8.35;;;4.85;;
74632;SDS011;63139;52.018;8.552;2023-03-29T12:35:23;8.23;;;5.15;;
74632;SDS011;63139;52.018;8.552;2023-03-29T12:38:18;8.70;;;5.53;;
74632;SDS011;63139;52.018;8.552;2023-03-29T12:41:11;9.73;;;6.30;;
74632;SDS011;63139;52.018;8.552;2023-03-29T12:44:02;6.93;;;5.30;;
74632;SDS011;63139;52.018;8.552;2023-03-29T12:46:39;8.38;;;6.07;;
74632;SDS011;63139;52.018;8.552;2023-03-29T12:49:09;7.80;;;5.90;;
74632;SDS011;63139;52.018;8.552;2023-03-29T12:51:39;8.30;;;5.80;;
74632;SDS011;63139;52.018;8.552;2023-03-29T12:54:10;9.80;;;6.30;;
74632;SDS011;63139;52.018;8.552;2023-03-29T12:56:53;8.65;;;5.78;;
74632;SDS011;63139;52.018;8.552;2023-03-29T12:59:25;9.55;;;6.70;;
74632;SDS011;63139;52.018;8.552;2023-03-29T13:02:17;7.93;;;5.70;;
74632;SDS011;63139;52.018;8.552;2023-03-29T13:05:00;8.48;;;6.03;;
74632;SDS011;63139;52.018;8.552;2023-03-29T13:07:31;9.85;;;6.47;;
74632;SDS011;63139;52.018;8.552;2023-03-29T13:10:27;11.18;;;7.03;;
74632;SDS011;63139;52.018;8.552;2023-03-29T13:13:15;11.23;;;7.15;;
74632;SDS011;63139;52.018;8.552;2023-03-29T13:15:45;9.63;;;6.45;;
74632;SDS011;63139;52.018;8.552;2023-03-29T13:18:24;11.43;;;6.97;;
74632;SDS011;63139;52.018;8.552;2023-03-29T13:21:10;8.07;;;6.18;;
74632;SDS011;63139;52.018;8.552;2023-03-29T13:23:46;10.10;;;6.43;;
74632;SDS011;63139;52.018;8.552;2023-03-29T13:26:31;7.88;;;6.10;;
74632;SDS011;63139;52.018;8.552;2023-03-29T13:32:20;8.65;;;5.88;;
74632;SDS011;63139;52.018;8.552;2023-03-29T13:34:58;10.80;;;5.90;;
74632;SDS011;63139;52.018;8.552;2023-03-29T13:37:36;10.30;;;5.40;;
74632;SDS011;63139;52.018;8.552;2023-03-29T13:40:27;14.55;;;6.20;;
74632;SDS011;63139;52.018;8.552;2023-03-29T13:43:00;7.93;;;5.80;;
74632;SDS011;63139;52.018;8.552;2023-03-29T13:45:36;8.65;;;5.25;;
74632;SDS011;63139;52.018;8.552;2023-03-29T13:48:19;12.93;;;5.68;;
74632;SDS011;63139;52.018;8.552;2023-03-29T13:50:52;8.30;;;5.53;;
74632;SDS011;63139;52.018;8.552;2023-03-29T13:53:24;10.38;;;6.28;;
74632;SDS011;63139;52.018;8.552;2023-03-29T13:55:56;9.57;;;5.65;;
74632;SDS011;63139;52.018;8.552;2023-03-29T13:58:27;10.45;;;5.97;;
74632;SDS011;63139;52.018;8.552;2023-03-29T14:01:08;8.98;;;4.85;;
74632;SDS011;63139;52.018;8.552;2023-03-29T14:03:41;8.23;;;5.50;;
74632;SDS011;63139;52.018;8.552;2023-03-29T14:06:11;7.85;;;4.93;;
74632;SDS011;63139;52.018;8.552;2023-03-29T14:08:42;11.80;;;6.07;;
74632;SDS011;63139;52.018;8.552;2023-03-29T14:11:14;8.38;;;5.32;;
74632;SDS011;63139;52.018;8.552;2023-03-29T14:13:50;8.73;;;4.80;;
74632;SDS011;63139;52.018;8.552;2023-03-29T14:16:20;8.48;;;5.07;;
74632;SDS011;63139;52.018;8.552;2023-03-29T14:18:49;8.02;;;5.05;;
74632;SDS011;63139;52.018;8.552;2023-03-29T14:21:18;10.43;;;5.07;;
74632;SDS011;63139;52.018;8.552;2023-03-29T14:23:52;11.75;;;5.78;;
74632;SDS011;63139;52.018;8.552;2023-03-29T14:26:22;7.65;;;4.88;;
74632;SDS011;63139;52.018;8.552;2023-03-29T14:28:51;7.43;;;5.35;;
74632;SDS011;63139;52.018;8.552;2023-03-29T14:31:23;6.72;;;4.95;;
74632;SDS011;63139;52.018;8.552;2023-03-29T14:33:56;7.80;;;5.28;;
74632;SDS011;63139;52.018;8.552;2023-03-29T14:36:25;10.07;;;6.18;;
74632;SDS011;63139;52.018;8.552;2023-03-29T14:38:55;7.07;;;5.30;;
74632;SDS011;63139;52.018;8.552;2023-03-29T14:41:27;7.93;;;6.03;;
74632;SDS011;63139;52.018;8.552;2023-03-29T14:43:56;9.38;;;5.15;;
74632;SDS011;63139;52.018;8.552;2023-03-29T14:46:26;7.70;;;5.90;;
74632;SDS011;63139;52.018;8.552;2023-03-29T14:48:55;8.45;;;5.50;;
74632;SDS011;63139;52.018;8.552;2023-03-29T14:51:23;9.98;;;5.30;;
74632;SDS011;63139;52.018;8.552;2023-03-29T14:53:56;9.43;;;5.78;;
74632;SDS011;63139;52.018;8.552;2023-03-29T14:56:24;9.90;;;6.18;;
74632;SDS011;63139;52.018;8.552;2023-03-29T14:58:54;8.80;;;6.07;;
74632;SDS011;63139;52.018;8.552;2023-03-29T15:01:23;8.98;;;6.00;;
74632;SDS011;63139;52.018;8.552;2023-03-29T15:03:55;9.27;;;5.75;;
74632;SDS011;63139;52.018;8.552;2023-03-29T15:06:27;10.93;;;6.65;;
74632;SDS011;63139;52.018;8.552;2023-03-29T15:08:57;10.57;;;5.97;;
74632;SDS011;63139;52.018;8.552;2023-03-29T15:11:32;8.23;;;5.32;;
74632;SDS011;63139;52.018;8.552;2023-03-29T15:14:01;11.43;;;6.20;;
74632;SDS011;63139;52.018;8.552;2023-03-29T15:16:31;9.02;;;5.72;;
74632;SDS011;63139;52.018;8.552;2023-03-29T15:19:01;7.60;;;5.47;;
74632;SDS011;63139;52.018;8.552;2023-03-29T15:21:31;6.90;;;5.50;;
74632;SDS011;63139;52.018;8.552;2023-03-29T15:24:01;8.23;;;5.80;;
74632;SDS011;63139;52.018;8.552;2023-03-29T15:26:30;8.57;;;5.50;;
74632;SDS011;63139;52.018;8.552;2023-03-29T15:29:00;6.43;;;5.20;;
74632;SDS011;63139;52.018;8.552;2023-03-29T15:31:33;6.57;;;5.07;;
74632;SDS011;63139;52.018;8.552;2023-03-29T15:34:04;8.35;;;5.13;;
74632;SDS011;63139;52.018;8.552;2023-03-29T15:36:37;9.45;;;5.63;;
74632;SDS011;63139;52.018;8.552;2023-03-29T15:39:09;9.07;;;5.65;;
74632;SDS011;63139;52.018;8.552;2023-03-29T15:41:38;9.68;;;5.65;;